Latest Weather Observations for Hunters Hill

IDV60801

Issued at 2:05 pm EST Thursday 24 July 2014 (issued every 30 minutes, with the page automatically refreshed every 10 minutes)

About weather observations | Map of weather stations | Latest weather observations for VIC | Other Formats
Station Details ID: 082139 Name: HUNTERS HILL Lat: -36.21 Lon: 147.54 Height: 981.0 m
Data from the previous 72 hours. | See also: Recent months at Hunters Hill
Date/Time
EST
Temp
°C
App
Temp
°C
Dew
Point
Rel
Hum
%
Delta-T
°C
Wind Press
QNH
hPa
Press
MSL
hPa
Rain
since 9 am
mm
Dir
 
Spd
km/h
Gust
km/h
Spd
kts
Gust
kts
24/02:00pm 4.9 2.6 4.9 100 0.0 NE 6 7 3 4 - - 0.8
24/01:30pm 5.2 2.8 5.2 100 0.0 NE 7 17 4 9 - - 0.8
24/01:00pm 5.5 3.3 5.5 100 0.0 NE 6 9 3 5 - - 0.8
24/12:30pm 5.3 3.1 5.3 100 0.0 NE 6 9 3 5 - - 0.8
24/12:00pm 4.7 2.4 4.7 100 0.0 NE 6 11 3 6 - - 0.6
24/11:30am 4.7 1.8 4.6 99 0.0 NNE 9 19 5 10 - - 0.4
24/11:00am 5.1 2.4 3.6 90 0.7 NNE 7 19 4 10 - - 0.0
24/10:30am 5.9 3.2 2.7 80 1.4 NW 6 9 3 5 - - 0.0
24/10:00am 6.0 3.3 2.6 79 1.5 NW 6 9 3 5 - - 0.0
24/09:30am 5.4 2.6 2.1 79 1.4 NW 6 11 3 6 - - 0.0
24/09:00am 5.0 2.5 1.5 78 1.5 NW 4 7 2 4 - - 0.0
24/08:30am 4.5 2.0 1.7 82 1.2 NW 4 7 2 4 - - 0.0
24/08:00am 3.9 1.7 1.1 82 1.2 NW 2 6 1 3 - - 0.0
24/07:30am 4.0 1.5 1.4 83 1.1 NW 4 6 2 3 - - 0.0
24/07:00am 3.8 1.6 1.2 83 1.1 NW 2 4 1 2 - - 0.0
24/06:30am 3.3 1.2 2.0 91 0.5 NW 2 4 1 2 - - 0.0
24/06:00am 3.2 1.1 2.0 92 0.5 NW 2 4 1 2 - - 0.0
24/05:30am 3.1 1.0 1.9 92 0.5 NW 2 6 1 3 - - 0.0
24/05:00am 3.4 1.0 2.2 92 0.5 NW 4 6 2 3 - - 0.0
24/04:30am 3.7 1.7 2.4 91 0.6 NW 2 4 1 2 - - 0.0
24/04:00am 4.1 1.6 1.8 85 1.0 NW 4 6 2 3 - - 0.0
24/03:30am 4.2 1.4 2.1 86 0.9 NW 6 7 3 4 - - 0.0
24/03:00am 3.4 1.2 3.1 98 0.1 NW 4 6 2 3 - - 0.0
24/02:30am 3.0 1.1 2.9 99 0.0 NW 2 4 1 2 - - 0.0
24/02:00am 2.9 0.6 2.6 98 0.1 NW 4 6 2 3 - - 0.0
24/01:30am 3.0 1.0 2.3 95 0.3 NW 2 4 1 2 - - 0.0
24/01:00am 3.3 1.3 2.4 94 0.4 NW 2 6 1 3 - - 0.0
24/12:30am 3.4 1.1 2.8 96 0.3 NW 4 6 2 3 - - 0.0
24/12:00am 3.6 1.3 2.6 93 0.4 NW 4 6 2 3 - - 0.0
 
Date/Time
EST
Temp
°C
App
Temp
°C
Dew
Point
Rel
Hum
%
Delta-T
°C
Wind Press
QNH
hPa
Press
MSL
hPa
Rain
since 9 am
mm
Dir
 
Spd
km/h
Gust
km/h
Spd
kts
Gust
kts
23/11:30pm 3.7 1.4 2.7 93 0.4 NW 4 6 2 3 - - 0.0
23/11:00pm 3.6 1.7 2.7 94 0.4 NW 2 2 1 1 - - 0.0
23/10:30pm 4.3 2.2 4.0 98 0.1 NW 4 4 2 2 - - 0.0
23/10:00pm 4.7 2.3 4.4 98 0.1 NW 6 7 3 4 - - 0.0
23/09:30pm 4.5 2.4 3.9 96 0.3 NW 4 6 2 3 - - 0.0
23/09:00pm 4.8 2.4 4.2 96 0.3 NW 6 7 3 4 - - 0.0
23/08:30pm 4.6 2.0 3.4 92 0.5 NW 6 7 3 4 - - 0.0
23/08:00pm 4.6 1.9 2.9 89 0.7 NW 6 7 3 4 - - 0.0
23/07:30pm 4.8 2.5 2.5 85 1.0 NW 4 7 2 4 - - 0.0
23/07:00pm 4.8 2.9 3.1 89 0.7 NW 2 6 1 3 - - 0.0
23/06:30pm 4.9 2.4 3.6 91 0.6 NW 6 7 3 4 - - 0.0
23/06:00pm 5.3 3.1 3.3 87 0.9 NW 4 4 2 2 - - 0.0
23/05:30pm 5.6 4.3 4.1 90 0.7 CALM 0 0 0 0 - - 0.0
23/05:00pm 6.4 4.9 3.2 80 1.4 CALM 0 0 0 0 - - 0.0
23/04:30pm 7.3 5.5 3.5 77 1.7 NW 2 4 1 2 - - 0.0
23/04:00pm 8.2 6.4 3.7 73 2.1 NW 2 6 1 3 - - 0.0
23/03:30pm 8.9 6.7 3.5 69 2.5 NW 4 6 2 3 - - 0.0
23/03:00pm 9.6 8.0 4.4 70 2.4 NW 2 6 1 3 - - 0.0
23/02:30pm 9.5 7.8 3.9 68 2.6 NW 2 4 1 2 - - 0.0
23/02:00pm 9.1 6.8 2.7 64 2.9 NW 4 7 2 4 - - 0.0
23/01:30pm 8.8 6.6 3.4 69 2.5 NW 4 7 2 4 - - 0.0
23/01:00pm 8.3 6.1 3.4 71 2.2 NW 4 7 2 4 - - 0.0
23/12:30pm 7.9 5.6 2.6 69 2.4 NW 4 7 2 4 - - 0.0
23/12:00pm 9.3 7.1 3.3 66 2.7 NW 4 7 2 4 - - 0.0
23/11:30am 8.7 6.4 2.5 65 2.8 NW 4 6 2 3 - - 0.0
23/11:00am 8.9 6.7 3.1 67 2.6 NW 4 7 2 4 - - 0.0
23/10:30am 7.9 6.1 3.4 73 2.0 NW 2 4 1 2 - - 0.0
23/10:00am 7.8 5.1 2.9 71 2.2 NW 6 7 3 4 - - 0.0
23/09:30am 6.8 4.4 2.1 72 2.0 NW 4 9 2 5 - - 0.0
23/09:00am 5.8 3.1 2.4 79 1.5 NW 6 9 3 5 - - 0.0
23/08:30am 5.3 2.9 2.3 81 1.3 NW 4 6 2 3 - - 0.0
23/08:00am 3.8 1.3 -1.0 71 1.9 NW 2 6 1 3 - - 0.0
23/07:30am 2.9 0.4 -0.9 76 1.5 NW 2 4 1 2 - - 0.0
23/07:00am 2.5 -0.4 -1.1 77 1.4 NW 4 6 2 3 - - 0.0
23/06:30am 2.5 -0.4 -0.9 78 1.3 NW 4 6 2 3 - - 0.0
23/06:00am 2.6 -0.3 -1.0 77 1.4 NW 4 6 2 3 - - 0.0
23/05:30am 2.7 -0.2 -0.9 77 1.4 NW 4 4 2 2 - - 0.0
23/05:00am 3.0 0.6 -0.6 77 1.4 NW 2 4 1 2 - - 0.0
23/04:30am 3.0 0.6 -0.6 77 1.4 NW 2 4 1 2 - - 0.0
23/04:00am 2.9 0.1 -0.5 78 1.3 NW 4 6 2 3 - - 0.0
23/03:30am 2.6 -0.2 -0.2 82 1.1 NW 4 6 2 3 - - 0.0
23/03:00am 2.2 -0.9 0.3 87 0.8 NW 6 7 3 4 - - 0.0
23/02:30am 2.1 -0.6 0.0 86 0.8 NW 4 6 2 3 - - 0.0
23/02:00am 2.5 -0.2 0.4 86 0.8 NW 4 6 2 3 - - 0.0
23/01:30am 2.6 -0.1 0.2 84 1.0 NW 4 4 2 2 - - 0.0
23/01:00am 3.3 1.2 -0.5 76 1.5 CALM 0 0 0 0 - - 0.0
23/12:30am 3.9 1.7 -1.9 66 2.2 CALM 0 0 0 0 - - 0.0
23/12:00am 4.7 2.6 -0.9 67 2.2 CALM 0 0 0 0 - - 0.0
 
Date/Time
EST
Temp
°C
App
Temp
°C
Dew
Point
Rel
Hum
%
Delta-T
°C
Wind Press
QNH
hPa
Press
MSL
hPa
Rain
since 9 am
mm
Dir
 
Spd
km/h
Gust
km/h
Spd
kts
Gust
kts
22/11:30pm 4.7 2.6 -1.1 66 2.3 CALM 0 0 0 0 - - 0.0
22/11:00pm 5.3 2.4 -1.4 62 2.6 NW 4 6 2 3 - - 0.0
22/10:30pm 5.4 3.2 -1.5 61 2.7 CALM 0 0 0 0 - - 0.0
22/10:00pm 5.2 2.9 -2.1 59 2.8 CALM 0 2 0 1 - - 0.0
22/09:30pm 5.2 2.7 -0.8 65 2.4 NW 2 4 1 2 - - 0.0
22/09:00pm 5.0 2.5 -1.0 65 2.4 NW 2 4 1 2 - - 0.0
22/08:30pm 5.5 2.6 -1.2 62 2.7 NW 4 6 2 3 - - 0.0
22/08:00pm 5.5 2.6 -1.0 63 2.6 NW 4 7 2 4 - - 0.0
22/07:30pm 5.5 2.3 -0.8 64 2.5 NW 6 7 3 4 - - 0.0
22/07:00pm 4.9 2.5 -0.3 69 2.1 NW 2 4 1 2 - - 0.0
22/06:30pm 4.9 2.1 -0.5 68 2.2 NW 4 4 2 2 - - 0.0
22/06:00pm 5.3 3.4 0.3 70 2.1 CALM 0 4 0 2 - - 0.0
22/05:30pm 5.9 3.9 -0.2 65 2.5 CALM 0 0 0 0 - - 0.0
22/05:00pm 7.6 4.9 -2.4 49 3.9 NW 2 4 1 2 - - 0.0
22/04:30pm 8.0 6.2 1.4 63 2.9 CALM 0 0 0 0 - - 0.0
22/04:00pm 8.5 6.3 1.2 60 3.2 NW 2 4 1 2 - - 0.0
22/03:30pm 9.2 7.1 1.4 58 3.4 NW 2 6 1 3 - - 0.0
22/03:00pm 9.1 6.5 0.8 56 3.6 NW 4 7 2 4 - - 0.0
22/02:30pm 9.4 6.3 0.3 53 3.9 NW 6 9 3 5 - - 0.0
22/02:00pm 9.6 6.7 -1.1 47 4.4 NW 4 7 2 4 - - 0.0
22/01:30pm 10.2 7.5 -2.8 40 5.2 NW 2 6 1 3 - - 0.0
22/01:00pm 9.0 5.8 -3.5 41 4.9 NW 4 6 2 3 - - 0.0
22/12:30pm 8.6 5.4 -3.3 43 4.6 NW 4 7 2 4 - - 0.0
22/12:00pm 8.2 5.4 -3.0 45 4.4 NW 2 6 1 3 - - 0.0
22/11:30am 8.1 5.9 -1.7 50 3.9 CALM 0 4 0 2 - - 0.0
22/11:00am 7.7 5.5 -1.8 51 3.8 CALM 0 2 0 1 - - 0.0
22/10:30am 7.8 5.2 -1.7 51 3.8 NW 2 4 1 2 - - 0.0
22/10:00am 7.3 5.2 -0.9 56 3.3 CALM 0 4 0 2 - - 0.0
22/09:30am 5.3 3.0 -2.3 58 2.9 CALM 0 0 0 0 - - 0.0
22/09:00am 3.8 1.3 -3.9 57 2.8 CALM 0 4 0 2 - - 0.0
22/08:30am 3.5 0.6 -4.4 56 2.8 NW 2 6 1 3 - - 0.0
22/08:00am 2.9 -0.1 -4.8 57 2.7 NW 2 4 1 2 - - 0.0
22/07:30am 2.6 -0.4 -5.3 56 2.9 NW 2 4 1 2 - - 0.0
22/07:00am 2.4 -0.6 -4.8 59 2.7 NW 2 2 1 1 - - 0.0
22/06:30am 2.3 -0.6 -4.4 61 2.5 NW 2 4 1 2 - - 0.0
22/06:00am 2.6 -0.3 -4.4 60 2.5 NW 2 2 1 1 - - 0.0
22/05:30am 2.7 -0.1 -3.2 65 2.2 NW 2 2 1 1 - - 0.0
22/05:00am 2.7 -0.1 -3.2 65 2.2 NW 2 4 1 2 - - 0.0
22/04:30am 3.0 0.2 -3.6 62 2.4 NW 2 2 1 1 - - 0.0
22/04:00am 2.9 0.1 -3.4 63 2.3 NW 2 2 1 1 - - 0.0
22/03:30am 2.8 0.0 -3.7 62 2.3 NW 2 2 1 1 - - 0.0
22/03:00am 3.1 0.5 -1.8 70 1.9 NW 2 4 1 2 - - 0.0
22/02:30am 3.2 1.0 -1.9 69 1.9 CALM 0 0 0 0 - - 0.0
22/02:00am 3.2 0.9 -2.1 68 2.0 CALM 0 0 0 0 - - 0.0
22/01:30am 3.1 0.7 -0.4 78 1.4 NW 2 4 1 2 - - 0.0
22/01:00am 3.1 0.6 -1.1 74 1.6 NW 2 4 1 2 - - 0.0
22/12:30am 3.0 0.9 -0.6 77 1.4 CALM 0 0 0 0 - - 0.0
22/12:00am 2.6 0.3 0.3 85 0.9 NW 2 4 1 2 - - 0.0
 
Date/Time
EST
Temp
°C
App
Temp
°C
Dew
Point
Rel
Hum
%
Delta-T
°C
Wind Press
QNH
hPa
Press
MSL
hPa
Rain
since 9 am
mm
Dir
 
Spd
km/h
Gust
km/h
Spd
kts
Gust
kts
21/11:30pm 2.9 0.6 0.3 83 1.0 NW 2 2 1 1 - - 0.0
21/11:00pm 2.9 0.3 0.8 86 0.9 NW 4 6 2 3 - - 0.0
21/10:30pm 3.0 0.3 0.2 82 1.1 NW 4 6 2 3 - - 0.0
21/10:00pm 3.3 0.9 0.0 79 1.3 NW 2 2 1 1 - - 0.0
21/09:30pm 3.6 1.5 -0.8 73 1.7 CALM 0 0 0 0 - - 0.0
21/09:00pm 3.6 1.5 -0.8 73 1.7 CALM 0 0 0 0 - - 0.0
21/08:30pm 3.5 1.5 0.0 78 1.4 CALM 0 0 0 0 - - 0.0
21/08:00pm 3.8 1.8 -0.4 74 1.7 CALM 0 0 0 0 - - 0.0
21/07:30pm 4.0 1.6 -3.3 59 2.7 CALM 0 0 0 0 - - 0.0
21/07:00pm 4.1 1.3 -6.7 45 3.7 CALM 0 0 0 0 - - 0.0
21/06:30pm 4.2 1.7 -3.8 56 2.9 CALM 0 0 0 0 - - 0.0
21/06:00pm 4.3 2.1 -1.5 66 2.3 CALM 0 0 0 0 - - 0.0
21/05:30pm 4.6 2.4 -1.2 66 2.3 CALM 0 0 0 0 - - 0.0
21/05:00pm 4.8 2.8 0.0 71 1.9 CALM 0 0 0 0 - - 0.0
21/04:30pm 5.4 3.2 1.3 75 1.7 NW 2 2 1 1 - - 0.0
21/04:00pm 6.7 4.5 1.2 68 2.3 NW 2 4 1 2 - - 0.0
21/03:30pm 7.4 5.3 1.7 67 2.5 NW 2 4 1 2 - - 0.0
21/03:00pm 7.8 5.8 2.5 69 2.4 NW 2 4 1 2 - - 0.0
21/02:30pm 7.7 6.1 2.4 69 2.3 CALM 0 4 0 2 - - 0.0

Other Formats:

Comma delimited format used in spreadsheet applications
http://www.bom.gov.au/fwo/IDV60801/IDV60801.94878.axf

JavaScript Object Notation format (JSON) in row-major order
http://www.bom.gov.au/fwo/IDV60801/IDV60801.94878.json